Terminal Aerodrome Forecast
Issued by NWS

Home | Current Version | Previous Version | Text Only | Print | Product List | Glossary On
Versions: 1 2 3 4 5 6 7 8 9 10 11 12 13 14 15 16 17 18 19 20 21 22 23 24 25 26 27 28 29 30 31 32 33 34 35
000
FTUS45 KBOU 280514 AAC
TAFBJC
TAF AMD
KBJC 280514Z 2805/2824 VRB03KT P6SM BKN060 BKN080
     FM280800 23006KT P6SM SCT045 BKN060 OVC100
     FM281000 30005KT 5SM BR SCT012 BKN030 OVC050
     FM281100 35006KT 1SM BR BKN006 OVC015
      TEMPO 2811/2815 1/2SM FG VV004
     FM281600 01007KT P6SM VCFG BKN015 OVC030
     FM281900 02009KT 5SM -SHRA SCT008 OVC015
      TEMPO 2821/2824 03011KT 3SM -SHRA BR OVC008=

USA.gov is the U.S. government's official web portal to all federal, state and local government web resources and services.